Westward — WDD4133 — position and weather

sailwx.info

Track history (hours):
 
Tides and Currents Weather Stations Pressure Air Temp Water Temp Dewpoint Dewpoint Depression Visibility Wind Speed Wind Dir Waves Ship Positions

Westward

Owner: Pacific Catalyst Expeditons, l.l.c., Seattle, WA. More information available from US FCC via Universal Licensing System and Coast Guard Vessel Documentation Center.

Last reported at 2017-Nov-14 20:54 UTC. Time now 2017-Nov-22 15:03 UTC.
Position N 31°00' W 116°27'.

Length 26 m; draft 10 m.

Type: Pleasure craft. MMSI: 367583000.

Date/timePositionNaut miles runAvg speedWind from/ knotsBaromVisibWave heightAir tempDewpointWater temp
2017-Nov-14 20:54N 31°00' W 116°27'4 8.8
2017-Nov-14 20:30N 31°04' W 116°29'4 8.6
2017-Nov-14 20:00N 31°08' W 116°31'12 8.7
2017-Nov-14 18:40N 31°18' W 116°36'2 8.8
2017-Nov-14 18:29N 31°20' W 116°36'6 8.8
2017-Nov-14 17:47N 31°26' W 116°39'5 8.9
2017-Nov-14 17:14N 31°30' W 116°41'2 8.6
2017-Nov-14 16:59N 31°32' W 116°42'4 8.6
2017-Nov-14 16:30N 31°36' W 116°44'6 8.4
2017-Nov-14 15:50N 31°42' W 116°45'  
Track history (hours):
 
Tides and Currents Weather Stations Pressure Air Temp Water Temp Dewpoint Dewpoint Depression Visibility Wind Speed Wind Dir Waves Ship Positions

Westward

Owner: Pacific Catalyst Expeditons, l.l.c., Seattle, WA. More information available from US FCC via Universal Licensing System and Coast Guard Vessel Documentation Center.

Last reported at 2017-Nov-14 20:54 UTC. Time now 2017-Nov-22 15:03 UTC.
Position N 31°00' W 116°27'.

Length 26 m; draft 10 m.

Type: Pleasure craft. MMSI: 367583000.

Date/timePositionNaut miles runAvg speedWind from/ knotsBaromVisibWave heightAir tempDewpointWater temp
2017-Nov-14 20:54N 31°00' W 116°27'4 8.8
2017-Nov-14 20:30N 31°04' W 116°29'4 8.6
2017-Nov-14 20:00N 31°08' W 116°31'12 8.7
2017-Nov-14 18:40N 31°18' W 116°36'2 8.8
2017-Nov-14 18:29N 31°20' W 116°36'6 8.8
2017-Nov-14 17:47N 31°26' W 116°39'5 8.9
2017-Nov-14 17:14N 31°30' W 116°41'2 8.6
2017-Nov-14 16:59N 31°32' W 116°42'4 8.6
2017-Nov-14 16:30N 31°36' W 116°44'6 8.4
2017-Nov-14 15:50N 31°42' W 116°45'  

Dump ship's entire track history